Time;durP1;ratioP1;P1;durP2;ratioP2;P2;SDS_P1;SDS_P2;PMS_P1;PMS_P2;Temp;Humidity;BMP_temperature;BMP_pressure;BME280_temperature;BME280_humidity;BME280_pressure;Samples;Min_cycle;Max_cycle;Signal;HPM_P1;HPM_P2
2022/02/17 00:02:01;;;;;;;2.90;1.00;;;13.50;99.90;;;;;;4980153;28;20690;-86
2022/02/17 00:04:26;;;;;;;5.87;1.00;;;13.40;99.90;;;;;;4982216;28;20262;-87
2022/02/17 00:06:52;;;;;;;5.37;1.30;;;13.40;99.90;;;;;;4984051;28;20228;-87
2022/02/17 00:09:17;;;;;;;7.57;1.30;;;13.40;99.90;;;;;;4982208;28;20219;-89
2022/02/17 00:11:43;;;;;;;7.47;1.30;;;13.40;99.90;;;;;;4979316;28;20526;-86
2022/02/17 00:14:09;;;;;;;7.23;1.50;;;13.40;99.90;;;;;;4979073;28;20219;-86
2022/02/17 00:16:34;;;;;;;11.17;1.87;;;13.40;99.90;;;;;;4978905;28;20178;-86
2022/02/17 00:19:02;;;;;;;10.80;1.80;;;13.40;99.90;;;;;;4979116;28;20715;-86
2022/02/17 00:21:28;;;;;;;11.00;2.10;;;13.40;99.90;;;;;;4978789;28;20551;-86
2022/02/17 00:23:54;;;;;;;6.37;2.00;;;13.40;99.90;;;;;;4978567;28;20665;-85
2022/02/17 00:26:19;;;;;;;14.97;3.03;;;13.40;99.90;;;;;;4978588;28;20177;-86
2022/02/17 00:28:45;;;;;;;14.17;3.53;;;13.40;99.90;;;;;;4994813;28;20189;-86
2022/02/17 00:31:11;;;;;;;12.63;2.67;;;13.30;99.90;;;;;;4978526;28;20185;-86
2022/02/17 00:33:40;;;;;;;19.27;3.47;;;13.30;99.90;;;;;;4978514;28;20203;-86
2022/02/17 00:36:05;;;;;;;12.27;3.60;;;13.30;99.90;;;;;;4978104;28;20189;-86
2022/02/17 00:38:31;;;;;;;16.33;4.03;;;13.30;99.90;;;;;;4978370;28;20177;-86
2022/02/17 00:40:57;;;;;;;13.47;3.10;;;13.30;99.90;;;;;;4978213;28;20682;-86
2022/02/17 00:43:23;;;;;;;13.47;2.87;;;13.30;99.90;;;;;;4978321;28;20189;-85
2022/02/17 00:45:49;;;;;;;13.40;2.80;;;13.20;99.90;;;;;;4978290;28;20211;-86
2022/02/17 00:48:15;;;;;;;18.30;3.73;;;13.20;99.90;;;;;;4978813;28;20178;-86
2022/02/17 00:50:40;;;;;;;16.43;2.80;;;13.10;99.90;;;;;;4978006;28;20188;-86
2022/02/17 00:53:06;;;;;;;15.00;2.70;;;13.10;99.90;;;;;;4978328;28;20183;-86
2022/02/17 00:55:32;;;;;;;17.40;3.53;;;13.10;99.90;;;;;;4977210;28;20238;-86
2022/02/17 00:57:58;;;;;;;19.30;3.47;;;13.10;99.90;;;;;;4977936;28;20620;-86
2022/02/17 01:00:23;;;;;;;18.63;4.03;;;13.00;99.90;;;;;;4977470;28;20217;-86
2022/02/17 01:02:49;;;;;;;18.37;3.20;;;12.90;99.90;;;;;;4995226;28;20695;-85
2022/02/17 01:05:14;;;;;;;15.67;3.77;;;12.90;99.90;;;;;;4994278;28;20184;-85
2022/02/17 01:07:40;;;;;;;15.93;3.37;;;12.90;99.90;;;;;;4977589;28;20280;-85
2022/02/17 01:10:06;;;;;;;18.03;4.13;;;12.90;99.90;;;;;;4974288;28;20265;-87
2022/02/17 01:12:32;;;;;;;19.87;4.07;;;12.80;99.90;;;;;;4968456;28;20225;-88
2022/02/17 01:14:58;;;;;;;23.60;4.77;;;12.80;99.90;;;;;;4974546;28;20224;-88
2022/02/17 01:17:24;;;;;;;18.63;3.97;;;12.70;99.90;;;;;;4974668;28;20603;-85
2022/02/17 01:19:49;;;;;;;25.10;5.00;;;12.70;99.90;;;;;;4974303;28;20297;-85
2022/02/17 01:22:15;;;;;;;21.97;5.10;;;12.70;99.90;;;;;;4974506;28;20277;-88
2022/02/17 01:24:41;;;;;;;22.33;5.43;;;12.70;99.90;;;;;;4974586;28;20273;-85
2022/02/17 01:27:07;;;;;;;21.20;4.73;;;12.70;99.90;;;;;;4974339;28;20567;-88
2022/02/17 01:29:33;;;;;;;21.40;4.27;;;12.60;99.90;;;;;;4974586;28;20178;-85
2022/02/17 01:31:59;;;;;;;22.23;3.97;;;12.60;99.90;;;;;;4974234;28;20616;-85
2022/02/17 01:34:25;;;;;;;22.93;4.60;;;12.70;99.90;;;;;;4974148;28;20189;-88
2022/02/17 01:36:50;;;;;;;22.03;4.60;;;12.70;99.90;;;;;;4974219;28;20633;-85
2022/02/17 01:39:16;;;;;;;19.73;4.47;;;12.70;99.90;;;;;;4974119;28;20186;-87
2022/02/17 01:41:41;;;;;;;28.17;4.60;;;12.60;99.90;;;;;;4974429;28;20183;-88
2022/02/17 01:44:09;;;;;;;30.10;5.07;;;12.50;99.90;;;;;;4974168;28;20274;-87
2022/02/17 01:46:36;;;;;;;21.23;4.20;;;12.50;99.90;;;;;;4974309;28;20202;-85
2022/02/17 01:49:05;;;;;;;25.47;4.93;;;12.50;99.90;;;;;;4973903;28;20182;-87
2022/02/17 01:51:32;;;;;;;28.63;4.70;;;12.40;99.90;;;;;;4974006;28;20242;-86
2022/02/17 01:53:59;;;;;;;20.27;4.50;;;12.40;99.90;;;;;;4973838;28;20170;-87
2022/02/17 01:56:27;;;;;;;27.13;5.20;;;12.40;99.90;;;;;;4973489;28;20191;-88
2022/02/17 01:58:53;;;;;;;31.77;5.77;;;12.40;99.90;;;;;;4973611;28;20233;-87
2022/02/17 02:01:21;;;;;;;22.73;5.10;;;12.40;99.90;;;;;;4973732;28;20237;-87
2022/02/17 02:03:47;;;;;;;25.17;5.47;;;12.30;99.90;;;;;;4974191;28;20171;-86
2022/02/17 02:06:12;;;;;;;29.80;5.47;;;12.40;99.90;;;;;;4973823;28;20179;-87
2022/02/17 02:08:38;;;;;;;28.47;5.67;;;12.30;99.90;;;;;;4973355;28;20533;-87
2022/02/17 02:11:04;;;;;;;26.10;5.03;;;12.30;99.90;;;;;;4974072;28;20568;-87
2022/02/17 02:13:29;;;;;;;37.87;6.03;;;12.30;99.90;;;;;;4973965;28;20205;-87
2022/02/17 02:15:55;;;;;;;25.40;4.73;;;12.20;99.90;;;;;;4973699;28;20262;-87
2022/02/17 02:18:22;;;;;;;23.00;5.47;;;12.20;99.90;;;;;;4973791;28;20191;-85
2022/02/17 02:20:50;;;;;;;25.60;5.30;;;12.30;99.90;;;;;;4973797;28;20736;-87
2022/02/17 02:23:16;;;;;;;26.90;5.63;;;12.30;99.90;;;;;;4973741;28;20252;-87
2022/02/17 02:25:45;;;;;;;29.03;5.33;;;12.20;99.90;;;;;;4973653;28;20182;-88
2022/02/17 02:28:24;;;;;;;26.97;4.93;;;12.20;99.90;;;;;;4973883;28;20190;-85
2022/02/17 02:30:50;;;;;;;25.13;5.10;;;12.20;99.90;;;;;;4973340;28;20185;-87
2022/02/17 02:33:20;;;;;;;22.03;4.93;;;12.20;99.90;;;;;;4973483;28;20164;-87
2022/02/17 02:35:47;;;;;;;27.50;5.30;;;12.10;99.90;;;;;;4973328;28;20265;-88
2022/02/17 02:38:14;;;;;;;23.17;4.87;;;12.00;99.90;;;;;;4973476;28;20210;-85
2022/02/17 02:40:40;;;;;;;25.33;5.27;;;12.00;99.90;;;;;;4973550;28;20214;-88
2022/02/17 02:43:06;;;;;;;34.83;6.37;;;11.90;99.90;;;;;;4973153;28;20546;-87
2022/02/17 02:45:32;;;;;;;34.80;5.73;;;11.80;99.90;;;;;;4973227;28;20179;-87
2022/02/17 02:48:03;;;;;;;31.50;5.63;;;11.90;99.90;;;;;;4973654;28;20167;-87
2022/02/17 02:50:28;;;;;;;30.40;6.23;;;11.80;99.90;;;;;;4973254;28;20278;-87
2022/02/17 02:52:54;;;;;;;32.73;5.30;;;11.70;99.90;;;;;;4973342;28;20210;-87
2022/02/17 02:55:19;;;;;;;32.60;6.20;;;11.70;99.90;;;;;;4973648;28;20187;-86
2022/02/17 02:57:45;;;;;;;36.77;7.63;;;11.60;99.90;;;;;;4973371;28;20209;-86
2022/02/17 03:00:11;;;;;;;30.13;4.73;;;11.60;99.90;;;;;;4973135;28;20280;-87
2022/02/17 03:02:36;;;;;;;33.23;5.77;;;11.60;99.90;;;;;;4973331;28;20182;-87
2022/02/17 03:05:03;;;;;;;29.57;6.00;;;11.60;99.90;;;;;;4973199;28;20193;-87
2022/02/17 03:07:28;;;;;;;32.23;5.67;;;11.60;99.90;;;;;;4973384;28;20639;-88
2022/02/17 03:09:54;;;;;;;29.10;5.63;;;11.60;99.90;;;;;;4973177;28;20249;-88
2022/02/17 03:12:19;;;;;;;25.73;5.80;;;11.60;99.90;;;;;;4973415;28;20223;-89
2022/02/17 03:14:45;;;;;;;35.50;6.50;;;11.60;99.90;;;;;;4973047;28;20174;-88
2022/02/17 03:17:11;;;;;;;38.63;5.73;;;11.60;99.90;;;;;;4973485;28;20550;-88
2022/02/17 03:19:36;;;;;;;31.03;6.30;;;11.50;99.90;;;;;;4974575;28;20650;-88
2022/02/17 03:22:02;;;;;;;30.47;5.67;;;11.40;99.90;;;;;;4977060;28;20647;-87
2022/02/17 03:24:28;;;;;;;33.77;6.47;;;11.40;99.90;;;;;;4976767;28;20170;-88
2022/02/17 03:26:54;;;;;;;31.90;6.73;;;11.30;99.90;;;;;;4976721;28;20186;-87
2022/02/17 03:29:20;;;;;;;34.07;7.20;;;11.40;99.90;;;;;;4976262;28;20229;-88
2022/02/17 03:31:45;;;;;;;28.30;5.20;;;11.50;99.90;;;;;;4976612;28;20689;-87
2022/02/17 03:34:11;;;;;;;34.23;6.33;;;11.60;99.90;;;;;;4976643;28;20181;-87
2022/02/17 03:36:37;;;;;;;28.53;5.00;;;11.60;99.90;;;;;;4976973;28;20190;-88
2022/02/17 03:39:03;;;;;;;25.27;5.73;;;11.60;99.90;;;;;;4976486;28;20539;-88
2022/02/17 03:41:29;;;;;;;35.70;6.27;;;11.50;99.90;;;;;;4976510;28;20210;-88
2022/02/17 03:43:57;;;;;;;36.17;7.13;;;11.50;99.90;;;;;;4976437;28;20238;-87
2022/02/17 03:46:23;;;;;;;41.80;7.00;;;11.40;99.90;;;;;;4976331;28;20652;-87
2022/02/17 03:48:48;;;;;;;28.33;7.63;;;11.40;99.90;;;;;;4976537;28;20238;-87
2022/02/17 03:51:14;;;;;;;38.03;6.43;;;11.40;99.90;;;;;;4976078;28;20255;-87
2022/02/17 03:53:40;;;;;;;30.30;7.00;;;11.30;99.90;;;;;;4976417;28;20524;-87
2022/02/17 03:56:05;;;;;;;35.57;6.47;;;11.30;99.90;;;;;;4976043;28;20178;-87
2022/02/17 04:01:16;;;;;;;36.63;6.40;;;11.40;99.90;;;;;;4977026;28;20209;-88
2022/02/17 04:03:41;;;;;;;34.87;6.33;;;11.40;99.90;;;;;;4976302;28;20224;-88
2022/02/17 04:06:07;;;;;;;34.73;6.10;;;11.40;99.90;;;;;;4976005;28;20183;-88
2022/02/17 04:08:32;;;;;;;28.10;6.00;;;11.40;99.90;;;;;;4975920;28;20190;-86
2022/02/17 04:11:02;;;;;;;29.27;6.27;;;11.40;99.90;;;;;;4976050;28;20198;-86
2022/02/17 04:13:28;;;;;;;32.47;5.93;;;11.30;99.90;;;;;;4975956;28;20175;-86
2022/02/17 04:15:54;;;;;;;38.63;6.43;;;11.30;99.90;;;;;;4975724;28;20186;-86
2022/02/17 04:18:19;;;;;;;31.13;6.70;;;11.30;99.90;;;;;;4976758;28;20643;-86
2022/02/17 04:20:45;;;;;;;34.33;6.67;;;11.30;99.90;;;;;;4975450;28;20212;-89
2022/02/17 04:23:10;;;;;;;41.07;6.80;;;11.20;99.90;;;;;;4975886;28;20275;-88
2022/02/17 04:25:36;;;;;;;33.97;6.70;;;11.20;99.90;;;;;;4977075;28;20228;-88
2022/02/17 04:28:02;;;;;;;33.20;6.23;;;11.20;99.90;;;;;;4975449;28;20201;-86
2022/02/17 04:30:27;;;;;;;36.37;6.33;;;11.10;99.90;;;;;;4975664;28;20178;-85
2022/02/17 04:32:53;;;;;;;40.93;6.90;;;11.20;99.90;;;;;;4979516;28;20278;-86
2022/02/17 04:35:19;;;;;;;25.67;6.53;;;11.30;99.90;;;;;;4978145;28;20195;-89
2022/02/17 04:37:45;;;;;;;39.37;8.43;;;11.30;99.90;;;;;;4975797;28;20209;-86
2022/02/17 04:40:11;;;;;;;46.63;7.20;;;11.30;99.90;;;;;;4975171;28;20221;-88
2022/02/17 04:42:37;;;;;;;40.60;6.67;;;11.20;99.90;;;;;;4975414;28;20538;-86
2022/02/17 04:45:03;;;;;;;36.27;6.17;;;11.20;99.90;;;;;;4975286;28;20529;-85
2022/02/17 04:47:28;;;;;;;37.43;7.47;;;11.10;99.90;;;;;;4975306;28;20178;-87
2022/02/17 04:49:54;;;;;;;35.80;7.03;;;11.20;99.90;;;;;;4975427;28;20515;-88
2022/02/17 04:52:20;;;;;;;36.23;6.57;;;11.20;99.90;;;;;;4975228;28;20186;-88
2022/02/17 04:54:45;;;;;;;41.63;6.60;;;11.20;99.90;;;;;;4975449;28;20744;-88
2022/02/17 04:57:11;;;;;;;40.40;6.73;;;11.30;99.90;;;;;;4974558;28;20185;-88
2022/02/17 04:59:36;;;;;;;40.10;7.17;;;11.30;99.90;;;;;;4974992;28;20205;-88
2022/02/17 05:02:03;;;;;;;29.67;6.17;;;11.40;99.90;;;;;;4974964;28;20184;-87
2022/02/17 05:04:28;;;;;;;39.93;6.93;;;11.30;99.90;;;;;;4977756;28;20169;-88
2022/02/17 05:06:54;;;;;;;34.80;7.63;;;11.30;99.90;;;;;;4977940;28;20654;-88
2022/02/17 05:09:19;;;;;;;39.97;6.83;;;11.20;99.90;;;;;;4974413;28;20194;-85
2022/02/17 05:11:45;;;;;;;43.07;7.47;;;11.20;99.90;;;;;;4977989;28;20198;-86
2022/02/17 05:14:11;;;;;;;40.43;7.30;;;11.20;99.90;;;;;;4978076;28;20689;-88
2022/02/17 05:16:37;;;;;;;33.77;7.33;;;11.20;99.90;;;;;;4977957;28;20177;-87
2022/02/17 05:19:03;;;;;;;35.47;7.20;;;11.10;99.90;;;;;;4978078;28;20181;-88
2022/02/17 05:21:29;;;;;;;39.10;6.87;;;11.10;99.90;;;;;;4978039;28;20688;-89
2022/02/17 05:23:54;;;;;;;38.43;7.70;;;11.10;99.90;;;;;;4977878;28;20189;-88
2022/02/17 05:26:20;;;;;;;28.17;6.43;;;11.10;99.90;;;;;;4977568;28;20174;-88
2022/02/17 05:28:46;;;;;;;35.00;6.57;;;11.00;99.90;;;;;;4977990;28;20196;-86
2022/02/17 05:31:12;;;;;;;40.37;7.73;;;11.10;99.90;;;;;;4977544;28;20260;-88
2022/02/17 05:33:38;;;;;;;34.50;6.60;;;11.10;99.90;;;;;;4977764;28;20627;-86
2022/02/17 05:36:04;;;;;;;43.40;7.77;;;11.10;99.90;;;;;;4977651;28;20613;-86
2022/02/17 05:38:29;;;;;;;50.00;8.10;;;11.10;99.90;;;;;;4977280;28;20547;-86
2022/02/17 05:40:55;;;;;;;46.00;9.03;;;11.20;99.90;;;;;;4977525;28;20229;-86
2022/02/17 05:43:21;;;;;;;38.00;6.83;;;11.10;99.90;;;;;;4977177;28;20178;-85
2022/02/17 05:45:46;;;;;;;41.57;8.00;;;11.00;99.90;;;;;;4977210;28;20574;-85
2022/02/17 05:48:12;;;;;;;36.37;8.13;;;11.10;99.90;;;;;;4977045;28;20180;-89
2022/02/17 05:50:38;;;;;;;32.10;7.67;;;11.10;99.90;;;;;;4977751;28;20650;-88
2022/02/17 05:53:03;;;;;;;41.03;8.03;;;11.10;99.90;;;;;;4977373;28;20716;-89
2022/02/17 05:55:30;;;;;;;36.40;8.17;;;11.10;99.90;;;;;;4977089;28;20256;-88
2022/02/17 05:57:55;;;;;;;40.17;7.50;;;11.10;99.90;;;;;;4977258;28;20181;-88
2022/02/17 06:00:21;;;;;;;44.30;7.70;;;11.10;99.90;;;;;;4977234;28;20340;-88
2022/02/17 06:02:47;;;;;;;39.87;7.20;;;11.10;99.90;;;;;;4977400;28;20646;-88
2022/02/17 06:05:16;;;;;;;42.10;7.73;;;11.10;99.90;;;;;;4977181;28;20702;-88
2022/02/17 06:07:42;;;;;;;42.20;7.67;;;11.10;99.90;;;;;;4976764;28;20178;-87
2022/02/17 06:10:08;;;;;;;42.10;8.27;;;11.00;99.90;;;;;;4976532;28;20201;-88
2022/02/17 06:12:41;;;;;;;42.77;6.67;;;11.00;99.90;;;;;;4976975;28;20208;-88
2022/02/17 06:15:08;;;;;;;43.87;7.03;;;11.20;99.90;;;;;;4976919;28;20201;-85
2022/02/17 06:17:33;;;;;;;38.83;6.83;;;11.30;99.90;;;;;;4976831;28;20193;-85
2022/02/17 06:19:59;;;;;;;38.83;7.80;;;11.20;99.90;;;;;;4977080;28;20225;-88
2022/02/17 06:22:24;;;;;;;41.03;6.70;;;11.10;99.90;;;;;;4976670;28;20185;-85
2022/02/17 06:24:51;;;;;;;38.47;7.33;;;11.10;99.90;;;;;;4976463;28;20178;-85
2022/02/17 06:27:16;;;;;;;47.07;8.17;;;10.90;99.90;;;;;;4976731;28;20247;-85
2022/02/17 06:29:42;;;;;;;33.70;6.30;;;10.90;99.90;;;;;;4976943;28;20225;-88
2022/02/17 06:32:08;;;;;;;38.13;7.10;;;11.00;99.90;;;;;;4976736;28;20185;-88
2022/02/17 06:34:33;;;;;;;37.70;7.83;;;11.00;99.90;;;;;;4976628;28;20719;-88
2022/02/17 06:36:59;;;;;;;48.30;7.73;;;11.00;99.90;;;;;;4976964;28;20186;-87
2022/02/17 06:39:24;;;;;;;46.67;7.30;;;10.90;99.90;;;;;;4976392;28;20224;-88
2022/02/17 06:41:50;;;;;;;41.63;7.23;;;10.90;99.90;;;;;;4977161;28;20189;-87
2022/02/17 06:44:16;;;;;;;34.57;6.30;;;10.90;99.90;;;;;;4976445;28;20244;-88
2022/02/17 06:46:41;;;;;;;33.67;6.80;;;10.80;99.90;;;;;;4993863;28;20166;-88
2022/02/17 06:49:07;;;;;;;48.97;8.17;;;10.90;99.90;;;;;;4976700;28;20697;-86
2022/02/17 06:51:32;;;;;;;36.40;8.23;;;11.00;99.90;;;;;;4976506;28;20182;-89
2022/02/17 06:53:58;;;;;;;39.37;7.67;;;11.00;99.90;;;;;;4976796;28;20631;-87
2022/02/17 06:56:24;;;;;;;37.13;7.13;;;10.90;99.90;;;;;;4980466;28;20173;-86
2022/02/17 06:58:49;;;;;;;46.00;7.67;;;10.80;99.90;;;;;;4980504;28;20194;-85
2022/02/17 07:01:15;;;;;;;46.37;8.63;;;10.80;99.90;;;;;;4979792;28;20219;-86
2022/02/17 07:03:40;;;;;;;52.23;8.60;;;10.90;99.90;;;;;;4978432;28;20248;-86
2022/02/17 07:06:06;;;;;;;46.40;8.50;;;10.70;99.90;;;;;;4979999;28;20197;-86
2022/02/17 07:08:32;;;;;;;42.20;8.03;;;10.70;99.90;;;;;;4979802;28;20194;-86
2022/02/17 07:11:00;;;;;;;43.70;8.27;;;10.60;99.90;;;;;;4980569;28;20235;-86
2022/02/17 07:13:28;;;;;;;51.33;8.50;;;10.70;99.90;;;;;;4980068;28;20627;-86
2022/02/17 07:15:55;;;;;;;44.17;7.50;;;10.80;99.90;;;;;;4980130;28;20186;-85
2022/02/17 07:18:22;;;;;;;45.90;8.50;;;11.00;99.90;;;;;;4980058;28;20182;-86
2022/02/17 07:20:50;;;;;;;50.43;8.30;;;10.80;99.90;;;;;;4979872;28;20237;-86
2022/02/17 07:23:17;;;;;;;34.10;7.10;;;10.80;99.90;;;;;;4979719;28;20185;-86
2022/02/17 07:25:47;;;;;;;42.60;8.13;;;10.80;99.90;;;;;;4979756;28;20224;-88
2022/02/17 07:28:14;;;;;;;40.23;7.83;;;10.90;99.90;;;;;;4979892;28;20273;-86
2022/02/17 07:30:41;;;;;;;39.40;6.73;;;11.00;99.90;;;;;;4979363;28;20206;-86
2022/02/17 07:33:08;;;;;;;37.23;7.13;;;11.00;99.90;;;;;;4974176;28;20185;-86
2022/02/17 07:35:33;;;;;;;41.20;7.63;;;11.00;99.90;;;;;;4978919;28;20216;-86
2022/02/17 07:37:59;;;;;;;39.73;7.37;;;10.90;99.90;;;;;;4980095;28;20189;-86
2022/02/17 07:40:26;;;;;;;46.87;7.57;;;10.80;99.90;;;;;;4978416;28;20221;-86
2022/02/17 07:42:51;;;;;;;35.73;6.97;;;10.80;99.90;;;;;;4979347;28;20181;-86
2022/02/17 07:45:20;;;;;;;40.80;7.13;;;10.70;99.90;;;;;;4984674;28;20669;-85
2022/02/17 07:47:46;;;;;;;39.23;7.33;;;10.80;99.90;;;;;;4998684;28;20212;-86
2022/02/17 07:50:16;;;;;;;39.30;6.93;;;10.80;99.90;;;;;;4990439;28;20658;-87
2022/02/17 07:52:43;;;;;;;39.30;6.53;;;10.70;99.90;;;;;;4979169;28;20182;-87
2022/02/17 07:55:09;;;;;;;41.63;7.30;;;10.80;99.90;;;;;;4979266;28;20174;-86
2022/02/17 07:57:35;;;;;;;42.37;7.97;;;10.80;99.90;;;;;;4979397;28;20197;-87
2022/02/17 08:00:02;;;;;;;36.60;6.30;;;10.80;99.90;;;;;;4978516;28;20261;-86
2022/02/17 08:02:28;;;;;;;43.23;6.40;;;10.90;99.90;;;;;;4978021;28;20634;-86
2022/02/17 08:04:54;;;;;;;29.17;6.27;;;10.90;99.90;;;;;;4977944;28;20228;-86
2022/02/17 08:07:19;;;;;;;38.50;5.87;;;10.90;99.90;;;;;;4978739;28;20545;-86
2022/02/17 08:09:45;;;;;;;36.37;7.07;;;11.00;99.90;;;;;;4979026;28;20304;-87
2022/02/17 08:12:10;;;;;;;39.30;6.50;;;10.80;99.90;;;;;;4978484;28;20191;-87
2022/02/17 08:14:36;;;;;;;34.90;6.43;;;10.80;99.90;;;;;;4978509;28;20553;-90
2022/02/17 08:17:01;;;;;;;32.50;6.43;;;10.90;99.90;;;;;;4979148;28;20224;-87
2022/02/17 08:19:27;;;;;;;34.83;5.93;;;11.00;99.90;;;;;;4977654;28;20273;-89
2022/02/17 08:21:53;;;;;;;31.10;5.80;;;11.00;99.90;;;;;;4972893;28;20268;-88
2022/02/17 08:24:18;;;;;;;29.47;6.00;;;11.00;99.90;;;;;;4968427;28;20195;-87
2022/02/17 08:26:44;;;;;;;26.83;6.07;;;10.90;99.90;;;;;;4968677;28;20189;-88
2022/02/17 08:29:10;;;;;;;29.83;6.10;;;11.00;99.90;;;;;;4978532;28;20638;-88
2022/02/17 08:31:36;;;;;;;30.20;5.77;;;11.00;99.90;;;;;;4977231;28;20196;-86
2022/02/17 08:34:04;;;;;;;27.87;5.33;;;11.00;99.90;;;;;;4977259;28;20181;-88
2022/02/17 08:36:33;;;;;;;22.77;5.47;;;11.10;99.90;;;;;;4978126;28;20185;-87
2022/02/17 08:38:59;;;;;;;34.87;5.70;;;11.10;99.90;;;;;;4977622;28;20190;-87
2022/02/17 08:41:25;;;;;;;29.50;5.40;;;11.10;99.90;;;;;;4978530;28;20264;-87
2022/02/17 08:43:51;;;;;;;26.93;5.07;;;11.30;99.90;;;;;;4978380;28;20651;-87
2022/02/17 08:46:17;;;;;;;36.23;7.17;;;11.30;99.90;;;;;;4971405;28;20197;-87
2022/02/17 08:48:42;;;;;;;26.67;4.70;;;11.10;99.90;;;;;;4977585;28;20174;-86
2022/02/17 08:51:09;;;;;;;36.30;5.80;;;11.10;99.90;;;;;;4994643;28;20185;-87
2022/02/17 08:53:34;;;;;;;28.80;4.90;;;11.10;99.90;;;;;;4981272;28;20182;-87
2022/02/17 08:56:00;;;;;;;30.03;6.37;;;11.30;99.90;;;;;;4982752;28;20182;-87
2022/02/17 08:58:25;;;;;;;39.60;6.47;;;11.40;99.90;;;;;;4981876;28;20202;-86
2022/02/17 09:00:51;;;;;;;36.37;5.70;;;11.40;99.90;;;;;;4977595;28;20214;-87
2022/02/17 09:03:17;;;;;;;27.70;6.43;;;11.50;99.90;;;;;;4977544;28;20213;-86
2022/02/17 09:05:43;;;;;;;33.67;6.70;;;11.40;99.90;;;;;;4978177;28;20591;-87
2022/02/17 09:08:09;;;;;;;41.23;6.70;;;11.30;99.90;;;;;;4977969;28;20194;-86
2022/02/17 09:10:39;;;;;;;31.13;6.73;;;11.30;99.90;;;;;;4977482;28;20202;-87
2022/02/17 09:13:05;;;;;;;34.40;5.50;;;11.40;99.90;;;;;;4978156;28;20181;-87
2022/02/17 09:15:31;;;;;;;41.27;6.77;;;11.50;99.90;;;;;;4977706;28;20182;-86
2022/02/17 09:17:56;;;;;;;34.93;6.30;;;11.60;99.90;;;;;;4976724;28;20185;-87
2022/02/17 09:20:22;;;;;;;33.70;6.47;;;11.50;99.90;;;;;;4977569;28;20595;-87
2022/02/17 09:22:48;;;;;;;45.93;6.77;;;11.50;99.90;;;;;;4977582;28;20182;-86
2022/02/17 09:25:14;;;;;;;36.50;7.33;;;11.30;99.90;;;;;;4977331;28;20212;-86
2022/02/17 09:27:40;;;;;;;36.07;6.90;;;11.20;99.90;;;;;;4977819;28;20681;-86
2022/02/17 09:30:07;;;;;;;30.17;6.23;;;11.10;99.90;;;;;;4977336;28;20639;-86
2022/02/17 09:32:33;;;;;;;33.13;6.60;;;11.00;99.90;;;;;;4976725;28;20178;-87
2022/02/17 09:34:59;;;;;;;25.70;5.77;;;11.10;99.90;;;;;;4977867;28;20189;-86
2022/02/17 09:37:25;;;;;;;24.23;4.53;;;10.90;99.90;;;;;;4977200;28;20545;-87
2022/02/17 09:39:51;;;;;;;20.93;4.50;;;10.90;99.90;;;;;;4977466;28;20242;-86
2022/02/17 09:42:17;;;;;;;22.33;4.27;;;11.00;99.90;;;;;;4977521;28;20193;-86
2022/02/17 09:44:44;;;;;;;14.60;3.17;;;11.00;99.90;;;;;;4977815;28;20536;-86
2022/02/17 09:47:11;;;;;;;16.37;3.43;;;11.00;99.90;;;;;;4976965;28;20268;-86
2022/02/17 09:49:39;;;;;;;15.63;3.80;;;11.00;99.90;;;;;;4975875;28;20173;-85
2022/02/17 09:52:05;;;;;;;23.17;3.70;;;11.00;99.90;;;;;;4968062;28;20201;-86
2022/02/17 09:54:33;;;;;;;20.63;3.83;;;11.10;99.90;;;;;;4973706;28;20182;-86
2022/02/17 09:56:58;;;;;;;22.33;3.93;;;11.00;99.90;;;;;;4973212;28;20205;-85
2022/02/17 09:59:24;;;;;;;23.90;4.40;;;11.10;99.90;;;;;;4974242;28;20252;-87
2022/02/17 18:09:24;;;;;;;9.07;1.57;;;11.30;97.10;;;;;;5943741;22;20309;-82
2022/02/17 18:11:50;;;;;;;9.73;1.63;;;11.20;96.40;;;;;;5034666;28;20399;-82
2022/02/17 18:14:16;;;;;;;5.47;1.40;;;11.10;96.80;;;;;;5033675;28;20659;-82
2022/02/17 18:16:41;;;;;;;7.10;1.97;;;11.20;97.90;;;;;;5033286;28;20191;-82
2022/02/17 18:19:07;;;;;;;7.60;1.63;;;11.20;98.40;;;;;;5033901;28;20267;-82
2022/02/17 18:21:32;;;;;;;12.53;2.17;;;11.20;99.90;;;;;;5025461;28;20593;-82
2022/02/17 18:23:58;;;;;;;12.57;2.27;;;10.80;99.90;;;;;;5051957;28;20221;-82
2022/02/17 18:26:24;;;;;;;16.27;2.90;;;10.80;99.90;;;;;;5031582;28;20186;-82
2022/02/17 18:28:50;;;;;;;11.17;2.87;;;10.60;99.90;;;;;;5020768;28;20668;-82
2022/02/17 18:31:15;;;;;;;20.80;3.27;;;10.50;99.90;;;;;;5024538;28;20553;-82
2022/02/17 18:33:45;;;;;;;24.27;3.33;;;10.40;99.90;;;;;;5027895;28;20182;-82
2022/02/17 18:36:11;;;;;;;19.63;3.63;;;10.00;99.90;;;;;;5033995;28;20193;-82
2022/02/17 18:38:38;;;;;;;15.60;2.97;;;9.60;99.90;;;;;;5034152;28;20223;-82
2022/02/17 18:41:04;;;;;;;17.27;2.67;;;9.50;99.90;;;;;;5025950;28;20283;-82
2022/02/17 18:43:29;;;;;;;17.40;2.90;;;9.40;99.90;;;;;;5025971;28;20667;-82
2022/02/17 18:45:55;;;;;;;21.53;3.43;;;9.40;99.90;;;;;;5019084;28;20544;-82
2022/02/17 18:48:21;;;;;;;20.43;3.23;;;9.50;99.90;;;;;;5030608;28;20184;-83
2022/02/17 18:50:47;;;;;;;23.47;3.60;;;9.20;99.90;;;;;;5034584;28;20243;-82
2022/02/17 18:53:12;;;;;;;29.70;3.93;;;9.20;99.90;;;;;;5029232;28;20185;-83
2022/02/17 18:55:39;;;;;;;21.47;3.77;;;9.20;99.90;;;;;;5038077;28;20185;-83
2022/02/17 18:58:06;;;;;;;21.87;3.60;;;9.20;99.90;;;;;;5055330;28;20253;-82
2022/02/17 19:00:35;;;;;;;22.63;3.67;;;9.30;99.90;;;;;;5039931;28;20229;-82
2022/02/17 19:03:01;;;;;;;24.07;3.13;;;9.30;99.90;;;;;;5049513;28;20715;-82
2022/02/17 19:05:27;;;;;;;18.87;3.90;;;9.30;99.90;;;;;;5037712;28;20643;-83
2022/02/17 19:07:53;;;;;;;23.03;4.40;;;9.30;99.90;;;;;;5031258;28;20177;-83
2022/02/17 19:10:19;;;;;;;21.77;3.53;;;9.40;99.90;;;;;;5024503;28;20183;-82
2022/02/17 19:12:45;;;;;;;25.50;3.63;;;9.40;99.90;;;;;;5038763;28;20178;-83
2022/02/17 19:15:12;;;;;;;23.13;4.00;;;9.50;99.90;;;;;;5038737;28;20179;-83
2022/02/17 19:17:39;;;;;;;23.90;4.33;;;9.60;99.90;;;;;;5035008;28;20179;-83
2022/02/17 19:20:06;;;;;;;25.20;3.97;;;9.70;99.90;;;;;;5045984;28;20180;-83
2022/02/17 19:22:32;;;;;;;18.10;4.03;;;9.70;99.90;;;;;;5036316;28;20172;-82
2022/02/17 19:24:58;;;;;;;19.37;4.40;;;9.70;99.90;;;;;;5038387;28;20643;-83
2022/02/17 19:27:24;;;;;;;25.67;5.07;;;9.70;99.90;;;;;;5037913;28;20203;-83
2022/02/17 19:29:49;;;;;;;23.50;4.30;;;9.80;99.90;;;;;;5037479;28;20261;-83
2022/02/17 19:32:16;;;;;;;28.73;4.10;;;9.70;99.90;;;;;;5038524;28;20547;-83
2022/02/17 19:34:42;;;;;;;20.13;4.80;;;9.70;99.90;;;;;;5054736;28;20174;-82
2022/02/17 19:37:09;;;;;;;26.33;3.83;;;9.50;99.90;;;;;;5037937;28;20179;-83
2022/02/17 19:39:36;;;;;;;23.60;3.83;;;9.50;99.90;;;;;;5037884;28;20233;-83
2022/02/17 19:42:04;;;;;;;23.60;4.17;;;9.40;99.90;;;;;;5037846;28;20211;-82
2022/02/17 19:44:30;;;;;;;22.43;4.40;;;9.40;99.90;;;;;;5037878;28;20186;-85
2022/02/17 19:46:58;;;;;;;15.60;4.90;;;9.40;99.90;;;;;;5055863;28;20236;-82
2022/02/17 19:49:28;;;;;;;15.20;4.13;;;9.40;99.90;;;;;;5037882;28;20184;-83
2022/02/17 19:51:53;;;;;;;25.47;4.90;;;9.50;99.90;;;;;;5037972;28;20176;-84
2022/02/17 19:54:20;;;;;;;32.57;5.27;;;9.50;99.90;;;;;;5037694;28;20663;-82
2022/02/17 19:56:46;;;;;;;28.17;6.53;;;9.50;99.90;;;;;;5037786;28;20167;-82
2022/02/17 19:59:12;;;;;;;34.73;6.63;;;9.50;99.90;;;;;;5053616;28;20199;-84
2022/02/17 20:01:37;;;;;;;35.17;6.27;;;9.40;99.90;;;;;;5029539;28;20564;-84
2022/02/17 20:04:04;;;;;;;32.13;5.07;;;9.40;99.90;;;;;;5038133;28;20550;-82
2022/02/17 20:06:37;;;;;;;25.10;5.63;;;9.30;99.90;;;;;;5032846;28;20177;-82
2022/02/17 20:09:03;;;;;;;33.00;7.73;;;9.30;99.90;;;;;;5017572;28;20182;-84
2022/02/17 20:11:29;;;;;;;31.17;6.00;;;9.20;99.90;;;;;;5017043;28;20197;-84
2022/02/17 20:13:54;;;;;;;39.33;7.97;;;9.30;99.90;;;;;;5036799;28;20669;-84
2022/02/17 20:16:23;;;;;;;45.07;8.90;;;9.30;99.90;;;;;;5034772;28;20592;-84
2022/02/17 20:18:48;;;;;;;38.07;6.93;;;9.50;99.90;;;;;;5037642;28;20174;-84
2022/02/17 20:21:14;;;;;;;46.03;8.10;;;9.50;99.90;;;;;;5037155;28;20225;-83
2022/02/17 20:23:40;;;;;;;39.27;7.30;;;9.50;99.90;;;;;;5034745;28;20663;-84
2022/02/17 20:26:06;;;;;;;35.10;7.33;;;9.50;99.90;;;;;;5023837;28;20187;-84
2022/02/17 20:28:32;;;;;;;45.30;7.23;;;9.50;99.90;;;;;;5036926;28;20170;-84
2022/02/17 20:30:57;;;;;;;34.47;6.80;;;9.50;99.90;;;;;;5037005;28;20183;-84
2022/02/17 20:33:23;;;;;;;42.03;7.33;;;9.60;99.90;;;;;;5037143;28;20213;-85
2022/02/17 20:35:49;;;;;;;37.47;7.63;;;9.50;99.90;;;;;;5026509;28;20176;-84
2022/02/17 20:38:14;;;;;;;50.57;6.63;;;9.50;99.90;;;;;;5018671;28;20232;-83
2022/02/17 20:40:40;;;;;;;37.23;6.87;;;9.50;99.90;;;;;;5028614;28;20203;-84
2022/02/17 20:43:06;;;;;;;37.50;6.47;;;9.40;99.90;;;;;;5032981;28;20205;-83